Time;durP1;ratioP1;P1;durP2;ratioP2;P2;SDS_P1;SDS_P2;PMS_P1;PMS_P2;Temp;Humidity;BMP_temperature;BMP_pressure;BME280_temperature;BME280_humidity;BME280_pressure;Samples;Min_cycle;Max_cycle;Signal;HPM_P1;HPM_P2
2023/12/05 00:02:18;;;;;;;11.30;6.20;;;2.40;83.20;;;;;;5048177;28;20046;-84
2023/12/05 00:04:45;;;;;;;12.03;5.90;;;2.40;83.20;;;;;;5048396;28;20059;-84
2023/12/05 00:07:14;;;;;;;10.85;5.70;;;2.40;83.00;;;;;;5046967;28;20267;-84
2023/12/05 00:09:41;;;;;;;13.30;6.15;;;2.30;83.00;;;;;;5048545;28;20462;-84
2023/12/05 00:12:08;;;;;;;11.90;6.00;;;2.30;83.10;;;;;;5030406;28;20510;-84
2023/12/05 00:14:36;;;;;;;12.13;6.00;;;2.30;83.20;;;;;;5050724;28;20610;-84
2023/12/05 00:17:03;;;;;;;12.23;5.60;;;2.30;83.40;;;;;;5066893;28;20131;-84
2023/12/05 00:19:30;;;;;;;11.60;6.40;;;2.30;83.60;;;;;;5067516;28;20280;-84
2023/12/05 00:21:57;;;;;;;10.95;5.53;;;2.30;83.60;;;;;;5050497;28;20058;-84
2023/12/05 00:24:25;;;;;;;12.02;6.18;;;2.30;83.50;;;;;;5033124;28;20072;-84
2023/12/05 00:26:53;;;;;;;11.68;6.18;;;2.30;83.30;;;;;;5049587;28;20057;-85
2023/12/05 00:29:20;;;;;;;11.90;6.33;;;2.30;83.20;;;;;;5049944;28;20060;-84
2023/12/05 00:31:47;;;;;;;12.32;5.85;;;2.30;83.10;;;;;;5049987;28;20257;-84
2023/12/05 00:34:14;;;;;;;11.95;6.47;;;2.30;83.40;;;;;;5048986;28;20974;-84
2023/12/05 00:36:41;;;;;;;13.48;6.43;;;2.30;83.20;;;;;;5049790;28;20063;-84
2023/12/05 00:39:07;;;;;;;11.93;5.97;;;2.30;83.40;;;;;;5032061;28;20503;-84
2023/12/05 00:41:36;;;;;;;13.07;6.60;;;2.30;83.60;;;;;;5049535;28;20669;-84
2023/12/05 00:44:03;;;;;;;12.60;7.00;;;2.30;83.60;;;;;;5048800;28;20277;-84
2023/12/05 00:46:30;;;;;;;11.35;6.00;;;2.30;84.00;;;;;;5049942;28;20327;-84
2023/12/05 00:48:57;;;;;;;11.98;6.28;;;2.30;83.70;;;;;;5047994;28;20064;-84
2023/12/05 00:51:24;;;;;;;13.57;7.30;;;2.30;83.80;;;;;;5049037;28;20052;-83
2023/12/05 00:53:51;;;;;;;13.00;6.07;;;2.30;83.70;;;;;;5033031;28;20058;-84
2023/12/05 00:56:20;;;;;;;12.52;6.75;;;2.40;83.90;;;;;;5049296;28;20261;-84
2023/12/05 00:58:48;;;;;;;14.10;7.22;;;2.40;83.70;;;;;;5066415;28;20050;-84
2023/12/05 01:01:16;;;;;;;10.68;6.20;;;2.40;83.30;;;;;;5049213;28;20061;-83
2023/12/05 01:03:43;;;;;;;12.98;6.50;;;2.30;83.20;;;;;;5066215;28;20057;-84
2023/12/05 01:06:10;;;;;;;14.30;6.47;;;2.30;83.40;;;;;;5050921;28;20127;-84
2023/12/05 01:08:37;;;;;;;12.63;6.50;;;2.30;83.50;;;;;;5049200;28;20264;-84
2023/12/05 01:11:05;;;;;;;13.75;6.45;;;2.30;83.40;;;;;;5066257;28;20080;-84
2023/12/05 01:13:32;;;;;;;14.48;7.20;;;2.30;83.50;;;;;;5049800;28;20061;-84
2023/12/05 01:16:00;;;;;;;11.30;6.25;;;2.40;84.00;;;;;;5050580;28;20049;-83
2023/12/05 01:18:29;;;;;;;10.87;5.90;;;2.40;84.10;;;;;;5066048;28;20181;-84
2023/12/05 01:20:56;;;;;;;13.18;6.88;;;2.40;84.00;;;;;;5048987;28;20280;-84
2023/12/05 01:23:23;;;;;;;13.45;7.68;;;2.40;83.90;;;;;;5049140;28;20053;-84
2023/12/05 01:25:50;;;;;;;12.05;6.53;;;2.50;84.20;;;;;;5048485;28;20050;-84
2023/12/05 01:28:17;;;;;;;12.85;6.93;;;2.50;84.30;;;;;;5032301;28;20507;-84
2023/12/05 01:30:44;;;;;;;13.33;6.63;;;2.50;83.90;;;;;;5082818;28;20051;-84
2023/12/05 01:33:13;;;;;;;12.95;6.65;;;2.60;83.90;;;;;;5032560;28;20848;-84
2023/12/05 01:35:40;;;;;;;12.20;6.70;;;2.60;83.70;;;;;;5048749;28;20056;-84
2023/12/05 01:38:07;;;;;;;13.20;6.85;;;2.50;83.20;;;;;;5048932;28;20053;-83
2023/12/05 01:40:35;;;;;;;12.75;6.80;;;2.50;83.30;;;;;;5050380;28;20056;-84
2023/12/05 01:43:02;;;;;;;12.90;7.03;;;2.60;83.80;;;;;;5048392;28;20060;-84
2023/12/05 01:45:29;;;;;;;12.27;6.55;;;2.60;83.60;;;;;;5032228;28;20276;-84
2023/12/05 01:47:56;;;;;;;12.10;6.65;;;2.60;83.60;;;;;;5048638;28;20057;-83
2023/12/05 01:50:29;;;;;;;12.98;7.15;;;2.60;83.30;;;;;;5048906;28;20058;-84
2023/12/05 01:52:59;;;;;;;11.50;7.00;;;2.60;83.20;;;;;;5050010;28;20604;-84
2023/12/05 01:55:28;;;;;;;14.57;7.17;;;2.60;83.10;;;;;;5032407;28;20056;-84
2023/12/05 01:57:56;;;;;;;12.95;7.10;;;2.50;82.90;;;;;;5048661;28;20253;-84
2023/12/05 02:00:24;;;;;;;14.02;6.93;;;2.50;83.10;;;;;;5048717;28;20045;-84
2023/12/05 02:02:51;;;;;;;12.77;7.32;;;2.50;83.00;;;;;;5032312;28;20053;-84
2023/12/05 02:05:18;;;;;;;12.50;6.90;;;2.50;83.10;;;;;;5048288;28;20056;-85
2023/12/05 02:07:47;;;;;;;12.83;7.47;;;2.50;83.40;;;;;;5049538;28;20063;-84
2023/12/05 02:10:14;;;;;;;13.95;7.50;;;2.50;83.50;;;;;;5048202;28;21220;-84
2023/12/05 02:12:41;;;;;;;11.10;6.78;;;2.60;83.40;;;;;;5048232;28;20132;-84
2023/12/05 02:15:09;;;;;;;14.30;7.68;;;2.60;83.20;;;;;;5031953;28;20056;-85
2023/12/05 02:17:45;;;;;;;12.45;7.00;;;2.60;83.40;;;;;;5061051;28;20142;-84
2023/12/05 02:20:21;;;;;;;13.63;7.23;;;2.60;83.50;;;;;;5085286;28;20056;-84
2023/12/05 02:23:15;;;;;;;12.43;6.93;;;2.70;83.90;;;;;;5051484;28;20288;-84
2023/12/05 02:25:53;;;;;;;13.45;8.10;;;2.70;83.40;;;;;;5032342;28;20060;-84
2023/12/05 02:28:21;;;;;;;13.05;7.90;;;2.70;83.20;;;;;;5051492;28;20195;-83
2023/12/05 02:30:48;;;;;;;12.57;7.20;;;2.70;83.20;;;;;;5069869;28;20053;-84
2023/12/05 02:33:15;;;;;;;13.53;7.87;;;2.70;83.20;;;;;;5068363;28;20156;-84
2023/12/05 02:35:43;;;;;;;13.00;7.13;;;2.70;83.00;;;;;;5101184;27;20249;-84
2023/12/05 02:38:13;;;;;;;14.90;8.05;;;2.60;82.70;;;;;;5101819;28;20056;-84
2023/12/05 02:40:54;;;;;;;13.77;8.02;;;2.60;82.70;;;;;;5051126;28;20049;-84
2023/12/05 02:43:28;;;;;;;14.13;8.23;;;2.60;83.00;;;;;;5106274;28;20083;-84
2023/12/05 02:45:57;;;;;;;14.00;7.67;;;2.60;83.20;;;;;;5051871;28;20045;-84
2023/12/05 02:48:25;;;;;;;15.13;8.13;;;2.60;83.30;;;;;;5084752;28;20253;-84
2023/12/05 02:50:53;;;;;;;16.50;8.57;;;2.60;83.40;;;;;;5051392;28;20521;-84
2023/12/05 02:53:20;;;;;;;15.43;8.45;;;2.70;83.20;;;;;;5068202;28;20079;-84
2023/12/05 02:55:48;;;;;;;13.68;7.53;;;2.70;83.40;;;;;;5051462;28;20059;-84
2023/12/05 02:58:15;;;;;;;14.57;7.70;;;2.70;83.70;;;;;;5069402;28;20532;-84
2023/12/05 03:00:43;;;;;;;14.82;8.10;;;2.80;83.50;;;;;;5068503;28;20252;-85
2023/12/05 03:03:10;;;;;;;14.10;7.85;;;2.80;83.30;;;;;;5069585;28;20049;-85
2023/12/05 03:05:38;;;;;;;13.48;7.25;;;2.80;83.70;;;;;;5067743;28;20045;-84
2023/12/05 03:08:05;;;;;;;14.68;8.40;;;2.80;83.30;;;;;;5069227;28;20134;-85
2023/12/05 03:10:32;;;;;;;13.53;7.90;;;2.80;82.90;;;;;;5068935;28;20132;-84
2023/12/05 03:12:59;;;;;;;13.30;7.70;;;2.80;82.80;;;;;;5067720;28;20283;-84
2023/12/05 03:15:26;;;;;;;14.40;8.45;;;2.80;83.10;;;;;;5067834;28;20056;-84
2023/12/05 03:17:54;;;;;;;14.82;8.63;;;2.80;83.20;;;;;;5067378;28;20139;-84
2023/12/05 03:20:21;;;;;;;12.57;7.65;;;2.80;83.00;;;;;;5068003;28;20053;-84
2023/12/05 03:22:48;;;;;;;14.23;8.33;;;2.80;82.70;;;;;;5068707;28;20053;-84
2023/12/05 03:25:15;;;;;;;15.88;8.80;;;2.70;82.60;;;;;;5067683;28;20676;-84
2023/12/05 03:27:43;;;;;;;16.23;8.32;;;2.70;82.90;;;;;;5084721;28;20514;-85
2023/12/05 03:30:11;;;;;;;15.35;8.63;;;2.80;83.30;;;;;;5067228;28;20052;-85
2023/12/05 03:32:38;;;;;;;13.88;7.75;;;2.80;83.10;;;;;;5067657;28;20053;-84
2023/12/05 03:35:07;;;;;;;15.00;8.50;;;2.70;82.90;;;;;;5067646;28;20049;-85
2023/12/05 03:37:34;;;;;;;14.20;7.82;;;2.80;83.20;;;;;;5068871;28;20340;-85
2023/12/05 03:40:02;;;;;;;13.75;8.05;;;2.80;83.20;;;;;;5067351;28;20051;-85
2023/12/05 03:42:29;;;;;;;14.23;8.70;;;2.80;83.50;;;;;;5067506;28;20048;-85
2023/12/05 03:44:56;;;;;;;14.18;8.23;;;2.80;83.20;;;;;;5084047;28;20049;-84
2023/12/05 03:47:25;;;;;;;13.47;7.63;;;2.80;83.20;;;;;;5066720;28;20119;-85
2023/12/05 03:49:52;;;;;;;14.52;8.82;;;2.80;82.90;;;;;;5066990;28;20328;-84
2023/12/05 03:52:20;;;;;;;15.25;9.07;;;2.80;82.80;;;;;;5100644;28;20540;-84
2023/12/05 03:54:47;;;;;;;15.77;8.85;;;2.80;82.50;;;;;;5068231;28;20055;-84
2023/12/05 03:57:14;;;;;;;16.52;8.57;;;2.70;82.40;;;;;;5067076;28;20138;-84
2023/12/05 03:59:41;;;;;;;15.17;8.67;;;2.70;82.40;;;;;;5053724;28;20135;-85
2023/12/05 04:02:08;;;;;;;15.05;8.43;;;2.70;82.30;;;;;;5047271;28;20306;-84
2023/12/05 04:04:35;;;;;;;16.58;9.38;;;2.50;82.30;;;;;;5048242;28;20050;-85
2023/12/05 04:07:02;;;;;;;15.43;9.15;;;2.50;82.60;;;;;;5046994;28;20089;-84
2023/12/05 04:09:31;;;;;;;17.13;9.45;;;2.50;82.70;;;;;;5046830;28;20046;-85
2023/12/05 04:11:59;;;;;;;17.97;10.40;;;2.60;83.00;;;;;;5046805;28;20053;-84
2023/12/05 04:14:25;;;;;;;17.75;9.35;;;2.60;83.00;;;;;;5048456;28;20963;-84
2023/12/05 04:16:52;;;;;;;17.50;9.60;;;2.70;83.10;;;;;;5048053;28;20076;-84
2023/12/05 04:19:19;;;;;;;17.02;9.07;;;2.70;83.10;;;;;;5046632;28;20056;-84
2023/12/05 04:21:46;;;;;;;15.73;9.05;;;2.70;83.00;;;;;;5047166;28;20045;-84
2023/12/05 04:24:13;;;;;;;16.90;8.90;;;2.70;82.60;;;;;;5046528;28;20128;-84
2023/12/05 04:26:41;;;;;;;17.42;9.57;;;2.60;82.90;;;;;;5048064;28;20252;-85
2023/12/05 04:29:08;;;;;;;17.58;9.70;;;2.60;82.80;;;;;;5048710;28;20046;-85
2023/12/05 04:31:35;;;;;;;17.02;10.18;;;2.60;82.80;;;;;;5046703;28;20050;-85
2023/12/05 04:34:02;;;;;;;17.88;10.07;;;2.50;82.60;;;;;;5046525;28;20053;-84
2023/12/05 04:36:29;;;;;;;16.80;9.60;;;2.50;82.60;;;;;;5079916;28;20052;-84
2023/12/05 04:38:55;;;;;;;17.10;9.27;;;2.50;82.90;;;;;;5046601;28;20332;-85
2023/12/05 04:41:22;;;;;;;19.38;10.48;;;2.50;82.70;;;;;;5063310;28;20057;-84
2023/12/05 04:43:51;;;;;;;17.60;9.43;;;2.50;82.80;;;;;;5047753;28;20136;-85
2023/12/05 04:46:18;;;;;;;17.23;9.80;;;2.50;82.90;;;;;;5046292;28;20084;-85
2023/12/05 04:48:44;;;;;;;18.37;9.80;;;2.50;83.30;;;;;;5047719;28;20156;-85
2023/12/05 04:51:11;;;;;;;16.80;9.60;;;2.60;83.20;;;;;;5045873;28;20644;-85
2023/12/05 04:53:40;;;;;;;18.60;9.32;;;2.60;83.10;;;;;;5046726;28;20359;-84
2023/12/05 04:56:08;;;;;;;19.63;10.43;;;2.70;83.20;;;;;;5046276;28;20800;-85
2023/12/05 04:58:35;;;;;;;16.77;9.05;;;2.70;83.30;;;;;;5051678;28;20056;-85
2023/12/05 05:01:04;;;;;;;20.03;10.10;;;2.70;83.30;;;;;;5069523;28;20052;-84
2023/12/05 05:03:31;;;;;;;18.13;9.93;;;2.70;83.00;;;;;;5087060;28;20049;-85
2023/12/05 05:05:58;;;;;;;18.77;10.55;;;2.70;82.80;;;;;;5069841;28;20053;-85
2023/12/05 05:08:25;;;;;;;21.33;10.45;;;2.70;82.70;;;;;;5069311;28;20051;-84
2023/12/05 05:10:51;;;;;;;21.02;10.73;;;2.70;82.80;;;;;;5069596;28;20053;-85
2023/12/05 05:13:18;;;;;;;20.97;10.73;;;2.70;82.60;;;;;;5069680;28;20053;-85
2023/12/05 05:15:44;;;;;;;19.02;10.65;;;2.60;82.70;;;;;;5086402;28;20128;-85
2023/12/05 05:18:13;;;;;;;19.50;11.57;;;2.60;83.00;;;;;;5070334;28;20053;-84
2023/12/05 05:20:40;;;;;;;20.75;11.52;;;2.60;83.00;;;;;;5069504;28;20060;-85
2023/12/05 05:23:09;;;;;;;21.50;10.87;;;2.70;83.00;;;;;;5086744;28;20132;-85
2023/12/05 05:25:36;;;;;;;20.88;11.40;;;2.70;82.90;;;;;;5070715;28;20502;-85
2023/12/05 05:28:03;;;;;;;20.50;9.73;;;2.70;83.00;;;;;;5086350;28;20164;-84
2023/12/05 05:30:30;;;;;;;19.83;10.77;;;2.70;82.90;;;;;;5069502;28;20060;-85
2023/12/05 05:32:57;;;;;;;19.40;11.13;;;2.70;82.90;;;;;;5069141;28;20053;-85
2023/12/05 05:35:25;;;;;;;19.67;10.33;;;2.70;83.20;;;;;;5102842;28;20129;-84
2023/12/05 05:37:52;;;;;;;20.00;11.05;;;2.70;83.30;;;;;;5070622;28;20052;-84
2023/12/05 05:40:19;;;;;;;19.95;10.25;;;2.70;83.30;;;;;;5068957;28;20049;-84
2023/12/05 05:42:46;;;;;;;22.02;10.57;;;2.80;83.00;;;;;;5070922;28;20077;-85
2023/12/05 05:45:13;;;;;;;21.30;11.10;;;2.70;83.10;;;;;;5069159;28;20498;-84
2023/12/05 05:47:40;;;;;;;21.70;10.80;;;2.80;83.30;;;;;;5069097;28;20064;-84
2023/12/05 05:50:08;;;;;;;20.30;10.65;;;2.80;83.10;;;;;;5068605;28;20053;-84
2023/12/05 05:52:36;;;;;;;21.27;11.18;;;2.80;82.80;;;;;;5068625;28;20064;-85
2023/12/05 05:55:03;;;;;;;20.85;11.20;;;2.80;83.10;;;;;;5070152;28;20131;-85
2023/12/05 05:57:31;;;;;;;21.13;11.05;;;2.80;83.70;;;;;;5068928;28;20037;-85
2023/12/05 05:59:58;;;;;;;17.63;9.43;;;2.90;83.30;;;;;;5068340;28;20497;-84
2023/12/05 06:02:26;;;;;;;21.08;10.45;;;2.90;82.80;;;;;;5051974;28;20045;-84
2023/12/05 06:04:53;;;;;;;21.45;10.52;;;2.80;82.70;;;;;;5068613;28;20506;-84
2023/12/05 06:07:21;;;;;;;19.33;9.85;;;2.80;82.80;;;;;;5085385;28;20782;-85
2023/12/05 06:09:49;;;;;;;20.98;10.70;;;2.80;82.80;;;;;;5051135;28;20061;-85
2023/12/05 06:12:16;;;;;;;20.73;11.43;;;2.80;82.60;;;;;;5068726;28;20139;-85
2023/12/05 06:14:43;;;;;;;21.58;10.65;;;2.80;82.90;;;;;;5068382;28;20049;-85
2023/12/05 06:17:11;;;;;;;21.38;10.90;;;2.90;83.20;;;;;;5051343;28;20053;-84
2023/12/05 06:19:38;;;;;;;20.92;10.90;;;2.90;83.20;;;;;;5067960;28;20628;-85
2023/12/05 06:22:05;;;;;;;23.25;12.02;;;2.90;83.00;;;;;;5067645;28;20138;-85
2023/12/05 06:24:32;;;;;;;19.77;10.43;;;2.90;82.90;;;;;;5051600;28;20052;-85
2023/12/05 06:27:00;;;;;;;21.08;11.20;;;3.00;82.90;;;;;;5067526;28;20045;-87
2023/12/05 06:29:29;;;;;;;21.13;11.20;;;3.00;82.90;;;;;;5067410;28;20053;-85
2023/12/05 06:31:56;;;;;;;23.17;11.52;;;3.00;82.80;;;;;;5050937;28;20044;-84
2023/12/05 06:34:24;;;;;;;22.25;11.38;;;3.00;82.50;;;;;;5058547;28;20541;-84
2023/12/05 06:36:50;;;;;;;21.57;11.80;;;3.10;82.50;;;;;;5066170;28;20056;-85
2023/12/05 06:39:17;;;;;;;20.88;11.00;;;3.00;82.40;;;;;;5066141;28;20048;-85
2023/12/05 06:41:44;;;;;;;23.75;10.82;;;3.00;82.30;;;;;;5083323;28;20060;-84
2023/12/05 06:44:13;;;;;;;20.65;10.13;;;3.00;82.20;;;;;;5067525;28;20084;-85
2023/12/05 06:46:40;;;;;;;23.33;11.68;;;3.00;82.10;;;;;;5048983;28;20056;-84
2023/12/05 06:49:07;;;;;;;22.13;11.53;;;3.00;82.10;;;;;;5066263;28;20131;-84
2023/12/05 06:51:33;;;;;;;21.73;10.70;;;3.00;82.30;;;;;;5074816;28;20049;-84
2023/12/05 06:54:00;;;;;;;21.30;10.88;;;3.00;82.30;;;;;;5057199;28;20131;-83
2023/12/05 06:56:27;;;;;;;21.05;10.40;;;3.00;82.30;;;;;;5071901;28;20511;-84
2023/12/05 06:58:54;;;;;;;21.75;10.48;;;3.00;81.90;;;;;;5063108;28;20059;-84
2023/12/05 07:01:22;;;;;;;20.53;11.07;;;3.00;81.80;;;;;;5066322;28;20047;-83
2023/12/05 07:03:49;;;;;;;20.33;10.43;;;3.00;81.90;;;;;;5064875;28;20064;-84
2023/12/05 07:06:16;;;;;;;22.20;11.50;;;3.00;82.10;;;;;;5065908;28;20057;-84
2023/12/05 07:08:43;;;;;;;22.40;11.88;;;3.00;82.00;;;;;;5067165;28;20055;-84
2023/12/05 07:11:10;;;;;;;21.77;11.43;;;3.00;81.90;;;;;;5066083;28;20060;-84
2023/12/05 07:13:37;;;;;;;21.43;10.83;;;3.00;81.80;;;;;;5063308;28;20148;-84
2023/12/05 07:16:05;;;;;;;21.15;10.55;;;3.00;81.60;;;;;;5063786;28;20047;-84
2023/12/05 07:18:33;;;;;;;21.85;10.65;;;3.00;81.80;;;;;;5065073;28;20053;-84
2023/12/05 07:21:00;;;;;;;19.98;10.73;;;3.00;81.80;;;;;;5064692;28;20494;-84
2023/12/05 07:23:28;;;;;;;22.70;10.70;;;3.00;81.90;;;;;;5082219;28;20052;-83
2023/12/05 07:25:56;;;;;;;20.90;10.57;;;3.00;81.90;;;;;;5066311;28;20045;-84
2023/12/05 07:28:23;;;;;;;20.88;10.30;;;3.00;81.90;;;;;;5063667;28;20044;-84
2023/12/05 07:30:51;;;;;;;20.15;10.77;;;3.00;81.60;;;;;;5049701;28;20212;-84
2023/12/05 07:33:18;;;;;;;21.67;10.68;;;3.00;81.70;;;;;;5079035;28;20061;-84
2023/12/05 07:35:47;;;;;;;23.83;10.95;;;2.90;81.80;;;;;;5078181;28;20045;-84
2023/12/05 07:38:14;;;;;;;20.97;10.53;;;3.00;81.90;;;;;;5048721;28;20055;-84
2023/12/05 07:40:41;;;;;;;19.52;10.27;;;3.00;82.10;;;;;;5063758;28;20041;-84
2023/12/05 07:43:09;;;;;;;21.88;10.45;;;3.00;82.10;;;;;;5066214;28;20053;-84
2023/12/05 07:45:36;;;;;;;22.88;10.55;;;3.00;82.00;;;;;;5066074;28;20056;-84
2023/12/05 07:48:03;;;;;;;21.73;11.38;;;3.00;81.80;;;;;;5067663;28;20522;-84
2023/12/05 07:50:30;;;;;;;20.23;10.93;;;3.00;81.90;;;;;;5066465;28;20053;-84
2023/12/05 07:52:58;;;;;;;21.08;10.98;;;3.10;82.00;;;;;;5083597;28;20064;-84
2023/12/05 07:55:25;;;;;;;22.75;11.30;;;3.10;81.80;;;;;;5066048;28;20044;-84
2023/12/05 07:57:51;;;;;;;23.08;11.05;;;3.10;81.60;;;;;;5064990;28;20536;-85
2023/12/05 08:00:19;;;;;;;20.85;10.65;;;3.10;81.60;;;;;;5046494;28;20057;-84
2023/12/05 08:02:46;;;;;;;20.33;10.63;;;3.10;81.50;;;;;;5053055;28;20549;-84
2023/12/05 08:05:14;;;;;;;23.20;10.88;;;3.10;81.50;;;;;;5061506;28;20104;-84
2023/12/05 08:07:42;;;;;;;19.73;10.23;;;3.10;81.50;;;;;;5066765;28;20237;-85
2023/12/05 08:10:11;;;;;;;22.73;11.00;;;3.00;81.20;;;;;;5067272;28;20144;-83
2023/12/05 08:12:46;;;;;;;22.27;11.50;;;3.00;81.20;;;;;;5066343;28;20081;-84
2023/12/05 08:15:14;;;;;;;22.10;10.90;;;3.00;81.30;;;;;;5072465;28;20053;-79
2023/12/05 08:17:41;;;;;;;23.50;10.10;;;3.00;81.40;;;;;;5070666;28;20055;-81
2023/12/05 08:20:09;;;;;;;23.35;10.77;;;3.00;81.30;;;;;;5055564;28;20049;-86
2023/12/05 08:22:36;;;;;;;21.23;10.63;;;3.00;81.00;;;;;;5055244;28;20580;-83
2023/12/05 08:25:07;;;;;;;22.10;11.05;;;2.90;81.20;;;;;;5065807;28;20524;-84
2023/12/05 08:27:36;;;;;;;20.13;9.97;;;2.90;81.20;;;;;;5083011;28;20518;-83
2023/12/05 08:30:04;;;;;;;21.10;10.43;;;2.90;81.40;;;;;;5066119;28;20060;-85
2023/12/05 08:32:31;;;;;;;21.90;10.10;;;2.90;81.50;;;;;;5066074;28;20659;-84
2023/12/05 08:34:58;;;;;;;21.33;11.38;;;2.90;81.40;;;;;;5068730;28;20048;-84
2023/12/05 08:37:26;;;;;;;21.85;10.98;;;2.90;81.30;;;;;;5070500;28;20399;-83
2023/12/05 08:39:53;;;;;;;24.43;11.07;;;2.90;81.30;;;;;;5050328;28;20061;-84
2023/12/05 08:42:20;;;;;;;20.67;10.27;;;2.90;81.60;;;;;;5085164;28;20489;-84
2023/12/05 08:44:48;;;;;;;24.17;11.30;;;2.90;81.40;;;;;;5068352;28;20128;-84
2023/12/05 08:47:17;;;;;;;23.02;11.80;;;2.90;81.40;;;;;;5068759;28;20057;-84
2023/12/05 08:49:44;;;;;;;22.63;11.70;;;2.90;81.50;;;;;;5067911;28;20055;-84
2023/12/05 08:52:11;;;;;;;21.53;10.07;;;2.90;81.50;;;;;;5051582;28;20155;-84
2023/12/05 08:54:37;;;;;;;22.58;11.00;;;2.90;81.60;;;;;;5070189;28;20410;-84
2023/12/05 08:57:04;;;;;;;22.90;11.73;;;2.90;81.50;;;;;;5069319;28;20053;-84
2023/12/05 08:59:32;;;;;;;20.98;10.07;;;2.90;81.50;;;;;;5069814;28;20576;-84
2023/12/05 09:02:00;;;;;;;21.73;9.63;;;2.90;81.50;;;;;;5069480;28;20049;-84
2023/12/05 09:04:27;;;;;;;23.30;11.17;;;2.90;81.40;;;;;;5069995;28;20052;-84
2023/12/05 09:06:54;;;;;;;21.95;10.15;;;2.90;81.20;;;;;;5052266;28;20573;-84
2023/12/05 09:09:21;;;;;;;24.30;11.45;;;2.90;81.40;;;;;;5069326;28;20060;-84
2023/12/05 09:11:48;;;;;;;20.67;10.27;;;2.90;81.40;;;;;;5070730;28;20092;-83
2023/12/05 09:14:15;;;;;;;21.30;11.10;;;2.90;81.60;;;;;;5052647;28;20048;-84
2023/12/05 09:16:42;;;;;;;19.63;9.87;;;2.90;81.50;;;;;;5069283;28;20052;-84
2023/12/05 09:19:11;;;;;;;21.33;9.88;;;2.90;81.50;;;;;;5069245;28;20053;-84
2023/12/05 09:21:37;;;;;;;21.52;10.40;;;2.90;81.50;;;;;;5095133;28;20053;-84
2023/12/05 09:24:08;;;;;;;22.33;10.25;;;2.90;81.40;;;;;;5069098;28;20060;-84
2023/12/05 09:26:35;;;;;;;21.60;10.68;;;2.90;81.50;;;;;;5069161;28;20080;-84
2023/12/05 09:29:02;;;;;;;19.13;9.80;;;2.90;81.50;;;;;;5052675;28;21101;-84
2023/12/05 09:31:30;;;;;;;24.25;11.00;;;3.00;81.50;;;;;;5085626;28;20049;-84
2023/12/05 09:33:57;;;;;;;19.70;9.43;;;3.00;81.60;;;;;;5085899;28;20415;-84
2023/12/05 09:36:25;;;;;;;21.27;9.73;;;3.00;81.70;;;;;;5069012;28;20122;-84
2023/12/05 09:38:52;;;;;;;22.00;10.93;;;3.00;81.70;;;;;;5068665;28;20053;-84
2023/12/05 09:41:20;;;;;;;20.23;9.87;;;3.00;81.70;;;;;;5051869;28;20053;-84
2023/12/05 09:43:51;;;;;;;19.83;9.18;;;3.10;81.70;;;;;;5069064;28;20525;-84
2023/12/05 09:46:20;;;;;;;20.85;10.30;;;3.10;81.70;;;;;;5068189;28;20053;-84
2023/12/05 09:48:48;;;;;;;20.30;10.07;;;3.10;81.80;;;;;;5069944;28;20138;-84
2023/12/05 09:51:16;;;;;;;19.55;9.45;;;3.10;81.70;;;;;;5068401;28;20067;-84
2023/12/05 09:53:45;;;;;;;21.67;10.50;;;3.10;81.60;;;;;;5069947;28;20142;-84
2023/12/05 09:56:14;;;;;;;20.60;10.30;;;3.10;81.50;;;;;;5068205;28;20053;-84
2023/12/05 09:58:43;;;;;;;19.52;10.00;;;3.10;81.40;;;;;;5069869;28;20529;-84
2023/12/05 10:01:13;;;;;;;20.17;9.30;;;3.10;81.20;;;;;;5068632;28;20523;-84
2023/12/05 10:03:42;;;;;;;18.55;9.73;;;3.20;81.30;;;;;;5068757;28;20071;-84
2023/12/05 10:06:11;;;;;;;19.07;9.40;;;3.20;81.20;;;;;;5068480;28;20506;-84
2023/12/05 10:08:39;;;;;;;19.73;9.93;;;3.10;81.20;;;;;;5051655;28;20522;-83
2023/12/05 10:11:09;;;;;;;18.95;9.38;;;3.10;81.20;;;;;;5068815;28;20057;-84
2023/12/05 10:13:39;;;;;;;18.13;9.35;;;3.20;81.30;;;;;;5068235;28;20079;-84
2023/12/05 10:16:08;;;;;;;20.88;9.20;;;3.10;81.10;;;;;;5051905;28;20164;-84
2023/12/05 10:18:36;;;;;;;21.97;9.90;;;3.10;81.00;;;;;;5085108;28;20064;-85
2023/12/05 10:21:05;;;;;;;20.00;9.70;;;3.10;81.10;;;;;;5085282;28;20579;-86
2023/12/05 10:23:33;;;;;;;20.38;9.95;;;3.10;81.20;;;;;;5084251;28;20051;-90
2023/12/05 10:26:00;;;;;;;19.92;9.55;;;3.10;81.30;;;;;;5067777;28;20053;-85
2023/12/05 10:28:29;;;;;;;20.38;10.13;;;3.10;81.40;;;;;;5068330;28;20514;-84
2023/12/05 10:30:57;;;;;;;21.47;10.33;;;3.20;81.30;;;;;;5048535;28;20053;-84
2023/12/05 10:33:24;;;;;;;19.85;9.70;;;3.20;81.10;;;;;;5083404;28;20045;-87
2023/12/05 10:35:52;;;;;;;19.23;10.23;;;3.20;81.20;;;;;;5063955;28;20935;-86
2023/12/05 10:38:21;;;;;;;18.42;9.90;;;3.20;81.30;;;;;;5068541;28;20077;-86
2023/12/05 10:40:56;;;;;;;20.20;9.90;;;3.30;81.30;;;;;;5056614;28;20312;-86
2023/12/05 10:43:24;;;;;;;19.90;10.03;;;3.20;81.10;;;;;;5048713;28;20132;-86
2023/12/05 10:45:54;;;;;;;18.95;10.05;;;3.20;81.00;;;;;;5063703;28;20055;-87
2023/12/05 10:48:23;;;;;;;19.67;9.82;;;3.10;81.00;;;;;;5066498;28;20261;-86
2023/12/05 10:50:52;;;;;;;20.38;10.32;;;3.20;81.10;;;;;;5059778;28;20045;-84
2023/12/05 10:53:20;;;;;;;21.88;10.70;;;3.20;81.30;;;;;;5064760;28;20045;-86
2023/12/05 10:55:48;;;;;;;21.90;10.53;;;3.20;81.20;;;;;;5067327;28;20128;-86
2023/12/05 10:58:16;;;;;;;22.25;10.95;;;3.20;81.20;;;;;;5062461;28;20048;-85
2023/12/05 11:00:46;;;;;;;21.20;10.90;;;3.30;81.30;;;;;;5056182;28;20052;-87
2023/12/05 11:03:16;;;;;;;21.42;10.35;;;3.30;81.20;;;;;;5065505;28;20076;-88
2023/12/05 11:05:43;;;;;;;20.88;10.30;;;3.30;81.20;;;;;;5068480;28;20049;-89
2023/12/05 11:08:10;;;;;;;21.17;10.57;;;3.30;81.40;;;;;;5085794;28;20061;-88
2023/12/05 11:10:39;;;;;;;18.30;9.52;;;3.30;81.50;;;;;;5068419;28;20052;-87
2023/12/05 11:13:07;;;;;;;22.52;11.50;;;3.30;81.50;;;;;;5047345;28;20041;-86
2023/12/05 11:15:36;;;;;;;20.83;9.73;;;3.30;81.50;;;;;;5049992;28;20116;-83
2023/12/05 11:18:11;;;;;;;21.77;11.38;;;3.30;81.40;;;;;;5055764;28;20115;-84
2023/12/05 11:20:55;;;;;;;21.37;10.80;;;3.30;81.40;;;;;;5074775;28;20049;-84
2023/12/05 11:23:50;;;;;;;22.67;11.13;;;3.40;81.50;;;;;;5066566;28;20047;-84
2023/12/05 11:26:34;;;;;;;21.13;10.73;;;3.50;81.40;;;;;;5064953;28;20056;-84
2023/12/05 11:29:17;;;;;;;20.48;10.15;;;3.50;81.40;;;;;;5051856;28;20053;-84
2023/12/05 11:31:52;;;;;;;21.58;10.25;;;3.50;81.50;;;;;;5057921;28;20056;-83
2023/12/05 11:34:37;;;;;;;22.30;11.50;;;3.50;81.30;;;;;;5058076;28;20061;-83
2023/12/05 11:37:23;;;;;;;20.83;10.30;;;3.50;81.40;;;;;;5058236;28;20580;-86
2023/12/05 11:39:51;;;;;;;22.92;11.02;;;3.50;81.10;;;;;;5058492;28;20065;-86
2023/12/05 11:42:19;;;;;;;22.75;10.95;;;3.50;81.10;;;;;;5056424;28;20060;-87
2023/12/05 11:44:47;;;;;;;19.92;9.88;;;3.50;81.30;;;;;;5062907;28;20055;-86
2023/12/05 11:47:15;;;;;;;21.37;10.57;;;3.60;81.40;;;;;;5077624;28;20053;-87
2023/12/05 11:49:53;;;;;;;23.88;11.20;;;3.60;81.40;;;;;;5065673;28;20049;-88
2023/12/05 11:52:23;;;;;;;21.92;11.02;;;3.60;81.20;;;;;;5057152;28;20061;-87
2023/12/05 11:54:52;;;;;;;22.77;11.68;;;3.60;81.20;;;;;;5058913;28;20550;-86
2023/12/05 11:57:21;;;;;;;24.40;11.73;;;3.70;80.90;;;;;;5058839;28;20053;-87
2023/12/05 11:59:52;;;;;;;22.20;10.83;;;3.70;80.90;;;;;;5075147;28;20049;-87
2023/12/05 12:02:25;;;;;;;24.45;11.10;;;3.60;80.80;;;;;;5074935;28;20509;-87
2023/12/05 12:04:59;;;;;;;22.92;11.68;;;3.70;80.90;;;;;;5047233;28;20069;-86
2023/12/05 12:07:30;;;;;;;21.77;10.85;;;3.70;81.10;;;;;;5047297;28;20046;-86
2023/12/05 12:09:57;;;;;;;25.95;12.43;;;3.70;81.00;;;;;;5061314;28;20072;-86
2023/12/05 12:12:25;;;;;;;22.97;11.13;;;3.70;81.00;;;;;;5054118;28;20049;-88
2023/12/05 12:14:53;;;;;;;21.48;11.20;;;3.70;81.00;;;;;;5069880;28;20079;-86
2023/12/05 12:17:20;;;;;;;24.17;12.10;;;3.70;81.00;;;;;;5051722;28;20136;-82
2023/12/05 12:19:49;;;;;;;24.48;11.90;;;3.70;80.60;;;;;;5070456;28;20052;-89
2023/12/05 12:22:16;;;;;;;25.35;12.35;;;3.70;80.60;;;;;;5053407;28;20055;-86
2023/12/05 12:24:46;;;;;;;25.53;12.07;;;3.70;80.70;;;;;;5052778;28;20048;-87
2023/12/05 12:27:13;;;;;;;24.65;12.02;;;3.80;80.80;;;;;;5053208;28;20076;-87
2023/12/05 12:29:52;;;;;;;26.83;12.80;;;3.80;80.60;;;;;;5087142;28;20120;-87
2023/12/05 12:32:19;;;;;;;25.05;11.32;;;3.80;80.40;;;;;;5054020;28;20570;-87
2023/12/05 12:34:46;;;;;;;25.08;11.80;;;3.80;80.40;;;;;;5088012;28;20103;-87
2023/12/05 12:37:13;;;;;;;23.53;11.77;;;3.80;80.50;;;;;;5069565;28;20072;-86
2023/12/05 12:39:43;;;;;;;26.77;12.40;;;3.70;80.10;;;;;;5069072;28;20172;-85
2023/12/05 12:42:12;;;;;;;27.70;12.43;;;3.70;80.10;;;;;;5069335;28;20136;-85
2023/12/05 12:44:39;;;;;;;26.92;13.10;;;3.70;80.50;;;;;;5052404;28;20045;-82
2023/12/05 12:47:06;;;;;;;27.30;12.50;;;3.70;80.50;;;;;;5068840;28;20637;-84